sensor_id;sensor_type;location;lat;lon;timestamp;temperature;humidity
3592;DHT22;1810;48.720;9.094;2024-02-14T04:07:07;5.20;99.90
3592;DHT22;1810;48.720;9.094;2024-02-14T04:09:36;6.10;99.90
3592;DHT22;1810;48.720;9.094;2024-02-14T04:12:05;6.10;99.90
3592;DHT22;1810;48.720;9.094;2024-02-14T04:14:33;6.00;99.90
3592;DHT22;1810;48.720;9.094;2024-02-14T04:17:03;5.90;99.90
3592;DHT22;1810;48.720;9.094;2024-02-14T04:19:32;5.80;99.90
3592;DHT22;1810;48.720;9.094;2024-02-14T04:22:01;5.80;99.90
3592;DHT22;1810;48.720;9.094;2024-02-14T04:24:33;5.80;99.90
3592;DHT22;1810;48.720;9.094;2024-02-14T04:27:01;5.70;99.90
3592;DHT22;1810;48.720;9.094;2024-02-14T04:29:31;5.70;99.90
3592;DHT22;1810;48.720;9.094;2024-02-14T04:32:01;5.70;99.90
3592;DHT22;1810;48.720;9.094;2024-02-14T04:34:29;5.80;99.90
3592;DHT22;1810;48.720;9.094;2024-02-14T04:36:58;5.80;99.90
3592;DHT22;1810;48.720;9.094;2024-02-14T04:39:27;5.80;99.90
3592;DHT22;1810;48.720;9.094;2024-02-14T04:41:55;5.70;99.90
3592;DHT22;1810;48.720;9.094;2024-02-14T04:44:28;5.80;99.90
3592;DHT22;1810;48.720;9.094;2024-02-14T04:46:57;5.90;99.90
3592;DHT22;1810;48.720;9.094;2024-02-14T04:49:26;6.00;99.90
3592;DHT22;1810;48.720;9.094;2024-02-14T04:51:56;6.00;99.90
3592;DHT22;1810;48.720;9.094;2024-02-14T04:54:27;6.20;99.90
3592;DHT22;1810;48.720;9.094;2024-02-14T04:56:55;6.20;99.90
3592;DHT22;1810;48.720;9.094;2024-02-14T04:59:28;6.10;99.90
3592;DHT22;1810;48.720;9.094;2024-02-14T05:01:56;6.20;99.90
3592;DHT22;1810;48.720;9.094;2024-02-14T05:04:25;6.30;99.90
3592;DHT22;1810;48.720;9.094;2024-02-14T05:06:54;6.30;99.90
3592;DHT22;1810;48.720;9.094;2024-02-14T05:09:26;6.30;99.90
3592;DHT22;1810;48.720;9.094;2024-02-14T05:11:55;6.20;99.90
3592;DHT22;1810;48.720;9.094;2024-02-14T05:14:23;6.20;99.90
3592;DHT22;1810;48.720;9.094;2024-02-14T05:17:15;6.30;99.90
3592;DHT22;1810;48.720;9.094;2024-02-14T05:19:44;6.30;99.90
3592;DHT22;1810;48.720;9.094;2024-02-14T05:22:12;6.40;99.90
3592;DHT22;1810;48.720;9.094;2024-02-14T05:24:42;6.40;99.90
3592;DHT22;1810;48.720;9.094;2024-02-14T05:27:10;6.30;99.90
3592;DHT22;1810;48.720;9.094;2024-02-14T05:29:38;6.30;99.90
3592;DHT22;1810;48.720;9.094;2024-02-14T05:32:06;6.20;99.90
3592;DHT22;1810;48.720;9.094;2024-02-14T05:34:36;6.30;99.90
3592;DHT22;1810;48.720;9.094;2024-02-14T05:37:04;6.40;99.90
3592;DHT22;1810;48.720;9.094;2024-02-14T05:39:34;6.30;99.90
3592;DHT22;1810;48.720;9.094;2024-02-14T05:42:04;6.30;99.90
3592;DHT22;1810;48.720;9.094;2024-02-14T05:44:33;6.40;99.90
3592;DHT22;1810;48.720;9.094;2024-02-14T05:47:01;6.40;99.90
3592;DHT22;1810;48.720;9.094;2024-02-14T05:49:30;6.50;99.90
3592;DHT22;1810;48.720;9.094;2024-02-14T05:51:58;6.50;99.90
3592;DHT22;1810;48.720;9.094;2024-02-14T05:54:26;6.60;99.90
3592;DHT22;1810;48.720;9.094;2024-02-14T05:56:54;6.50;99.90
3592;DHT22;1810;48.720;9.094;2024-02-14T05:59:25;6.50;99.90
3592;DHT22;1810;48.720;9.094;2024-02-14T06:01:54;6.60;99.90
3592;DHT22;1810;48.720;9.094;2024-02-14T06:04:22;6.60;99.90
3592;DHT22;1810;48.720;9.094;2024-02-14T06:06:50;6.60;99.90
3592;DHT22;1810;48.720;9.094;2024-02-14T06:09:18;6.60;99.90
3592;DHT22;1810;48.720;9.094;2024-02-14T06:11:46;6.60;99.90
3592;DHT22;1810;48.720;9.094;2024-02-14T06:14:15;6.60;99.90
3592;DHT22;1810;48.720;9.094;2024-02-14T06:16:44;6.60;99.90
3592;DHT22;1810;48.720;9.094;2024-02-14T06:19:12;6.60;99.90
3592;DHT22;1810;48.720;9.094;2024-02-14T06:21:41;6.50;99.90
3592;DHT22;1810;48.720;9.094;2024-02-14T06:24:09;6.50;99.90
3592;DHT22;1810;48.720;9.094;2024-02-14T06:26:40;6.60;99.90
3592;DHT22;1810;48.720;9.094;2024-02-14T06:29:08;6.60;99.90
3592;DHT22;1810;48.720;9.094;2024-02-14T06:31:38;6.60;99.90
3592;DHT22;1810;48.720;9.094;2024-02-14T06:34:08;6.60;99.90
3592;DHT22;1810;48.720;9.094;2024-02-14T06:36:37;6.70;99.90
3592;DHT22;1810;48.720;9.094;2024-02-14T06:39:29;6.70;99.90
3592;DHT22;1810;48.720;9.094;2024-02-14T06:42:00;6.70;99.90
3592;DHT22;1810;48.720;9.094;2024-02-14T06:44:29;6.60;99.90
3592;DHT22;1810;48.720;9.094;2024-02-14T06:46:59;6.60;99.90
3592;DHT22;1810;48.720;9.094;2024-02-14T06:49:29;6.60;99.90
3592;DHT22;1810;48.720;9.094;2024-02-14T06:51:58;6.70;99.90
3592;DHT22;1810;48.720;9.094;2024-02-14T06:54:26;6.70;99.90
3592;DHT22;1810;48.720;9.094;2024-02-14T06:56:54;6.70;99.90
3592;DHT22;1810;48.720;9.094;2024-02-14T06:59:22;6.70;99.90
3592;DHT22;1810;48.720;9.094;2024-02-14T07:01:50;6.60;99.90
3592;DHT22;1810;48.720;9.094;2024-02-14T07:04:33;6.70;99.90
3592;DHT22;1810;48.720;9.094;2024-02-14T07:07:01;6.70;99.90
3592;DHT22;1810;48.720;9.094;2024-02-14T07:09:30;6.70;99.90
3592;DHT22;1810;48.720;9.094;2024-02-14T07:11:59;6.80;99.90
3592;DHT22;1810;48.720;9.094;2024-02-14T07:14:27;6.70;99.90
3592;DHT22;1810;48.720;9.094;2024-02-14T07:16:56;6.70;99.90
3592;DHT22;1810;48.720;9.094;2024-02-14T07:19:24;6.80;99.90
